createdAt,value
2018-07-28T00:01:47.721Z,45.59
2018-07-28T00:04:16.808Z,45.41
2018-07-28T00:06:45.852Z,46.02
2018-07-28T00:09:14.920Z,45.31
2018-07-28T00:11:43.961Z,45.41
2018-07-28T00:14:13.032Z,45.40
2018-07-28T00:16:42.137Z,46.90
2018-07-28T00:19:11.207Z,46.28
2018-07-28T00:21:40.254Z,47.05
2018-07-28T00:24:09.320Z,47.18
2018-07-28T00:26:38.391Z,47.26
2018-07-28T00:29:07.486Z,47.77
2018-07-28T00:31:36.889Z,47.50
2018-07-28T00:34:05.985Z,46.93
2018-07-28T00:36:35.164Z,47.15
2018-07-28T00:39:06.937Z,47.14
2018-07-28T00:41:36.423Z,47.73
2018-07-28T00:44:05.621Z,46.97
2018-07-28T00:46:34.739Z,47.98
2018-07-28T00:49:03.941Z,47.96
2018-07-28T00:51:33.376Z,47.38
2018-07-28T00:54:02.511Z,48.62
2018-07-28T00:56:31.731Z,48.64
2018-07-28T00:59:00.837Z,48.65
2018-07-28T01:01:30.015Z,48.10
2018-07-28T01:03:59.080Z,48.43
2018-07-28T01:06:28.240Z,48.92
2018-07-28T01:08:57.530Z,48.17
2018-07-28T01:11:26.973Z,48.29
2018-07-28T01:13:56.021Z,48.32
2018-07-28T01:16:25.105Z,48.58
2018-07-28T01:18:54.201Z,48.93
2018-07-28T01:21:23.399Z,49.54
2018-07-28T01:23:52.457Z,48.82
2018-07-28T01:26:21.549Z,49.82
2018-07-28T01:28:54.777Z,49.63
2018-07-28T01:31:23.908Z,49.76
2018-07-28T01:33:53.022Z,49.73
2018-07-28T01:36:22.107Z,50.87
2018-07-28T01:38:51.124Z,50.54
2018-07-28T01:41:20.453Z,50.79
2018-07-28T01:43:49.599Z,51.61
2018-07-28T01:46:18.686Z,51.20
2018-07-28T01:48:47.692Z,50.25
2018-07-28T01:51:16.811Z,50.01
2018-07-28T01:53:45.875Z,51.03
2018-07-28T01:56:14.934Z,51.27
2018-07-28T01:58:44.125Z,51.18
2018-07-28T02:01:13.229Z,52.54
2018-07-28T02:03:42.302Z,51.77
2018-07-28T02:08:46.645Z,51.88
2018-07-28T02:11:15.769Z,53.30
2018-07-28T02:13:44.884Z,53.00
2018-07-28T02:16:13.960Z,51.88
2018-07-28T02:18:43.076Z,51.54
2018-07-28T02:21:12.132Z,50.33
2018-07-28T02:23:41.266Z,50.53
2018-07-28T02:26:10.328Z,50.42
2018-07-28T02:28:39.699Z,50.19
2018-07-28T02:31:08.756Z,50.69
2018-07-28T02:33:37.840Z,50.51
2018-07-28T02:36:07.585Z,50.95
2018-07-28T02:38:36.668Z,49.65
2018-07-28T02:41:05.777Z,51.08
2018-07-28T02:43:34.864Z,50.87
2018-07-28T02:46:03.998Z,49.64
2018-07-28T02:48:33.110Z,50.99
2018-07-28T02:51:02.217Z,50.12
2018-07-28T02:53:31.342Z,50.93
2018-07-28T02:56:00.436Z,51.20
2018-07-28T02:58:29.566Z,51.73
2018-07-28T03:00:58.683Z,51.62
2018-07-28T03:03:27.747Z,51.31
2018-07-28T03:05:56.841Z,52.31
2018-07-28T03:08:27.845Z,52.30
2018-07-28T03:10:56.921Z,52.72
2018-07-28T03:13:26.517Z,52.86
2018-07-28T03:15:55.631Z,52.81
2018-07-28T03:18:24.690Z,53.07
2018-07-28T03:20:53.778Z,52.80
2018-07-28T03:23:22.842Z,53.04
2018-07-28T03:25:51.920Z,53.15
2018-07-28T03:28:20.953Z,52.87
2018-07-28T03:30:50.013Z,52.91
2018-07-28T03:33:19.082Z,53.98
2018-07-28T03:35:48.154Z,53.29
2018-07-28T03:38:17.235Z,53.09
2018-07-28T03:40:46.344Z,53.70
2018-07-28T03:43:15.405Z,53.64
2018-07-28T03:45:44.537Z,54.97
2018-07-28T03:48:13.633Z,54.45
2018-07-28T03:50:42.991Z,54.53
2018-07-28T03:53:12.072Z,54.13
2018-07-28T03:55:41.186Z,54.06
2018-07-28T03:58:10.266Z,55.36
2018-07-28T04:00:39.346Z,55.83
2018-07-28T04:03:08.477Z,55.80
2018-07-28T04:05:37.579Z,56.46
2018-07-28T04:08:06.647Z,56.35
2018-07-28T04:10:35.775Z,55.32
2018-07-28T04:13:04.935Z,54.82
2018-07-28T04:15:34.001Z,54.54
2018-07-28T04:18:03.096Z,55.06
2018-07-28T04:20:32.127Z,54.55
2018-07-28T04:23:01.194Z,54.18
2018-07-28T04:25:30.249Z,54.61
2018-07-28T04:27:59.366Z,55.29
2018-07-28T04:30:28.411Z,53.67
2018-07-28T04:32:58.402Z,54.70
2018-07-28T04:35:27.434Z,53.44
2018-07-28T04:37:56.569Z,53.48
2018-07-28T04:40:25.682Z,52.27
2018-07-28T04:42:54.809Z,52.59
2018-07-28T04:45:24.232Z,53.26
2018-07-28T04:47:53.326Z,52.55
2018-07-28T04:50:22.377Z,52.68
2018-07-28T04:52:51.614Z,52.97
2018-07-28T04:55:20.689Z,53.45
2018-07-28T04:57:49.769Z,53.05
2018-07-28T05:00:18.908Z,53.32
2018-07-28T05:02:47.992Z,53.00
2018-07-28T05:05:17.096Z,52.62
2018-07-28T05:07:46.242Z,53.26
2018-07-28T05:10:15.272Z,53.53
2018-07-28T05:12:44.345Z,52.62
2018-07-28T05:15:13.411Z,52.48
2018-07-28T05:17:42.490Z,52.77
2018-07-28T05:20:11.573Z,52.39
2018-07-28T05:22:40.631Z,51.63
2018-07-28T05:25:09.785Z,51.76
2018-07-28T05:27:38.831Z,52.24
2018-07-28T05:30:09.376Z,53.91
2018-07-28T05:32:38.458Z,53.03
2018-07-28T05:35:08.834Z,51.47
2018-07-28T05:37:37.892Z,51.86
2018-07-28T05:40:07.011Z,51.26
2018-07-28T05:42:36.143Z,51.55
2018-07-28T05:45:06.000Z,52.50
2018-07-28T05:47:35.315Z,52.59
2018-07-28T05:50:05.096Z,52.16
2018-07-28T05:52:34.186Z,53.47
2018-07-28T05:55:03.303Z,53.49
2018-07-28T05:57:32.841Z,52.45
2018-07-28T06:00:01.892Z,52.45
2018-07-28T06:02:31.081Z,53.07
2018-07-28T06:05:00.107Z,52.74
2018-07-28T06:07:29.266Z,53.15
2018-07-28T06:09:58.369Z,52.48
2018-07-28T06:12:27.466Z,53.71
2018-07-28T06:14:56.572Z,53.76
2018-07-28T06:17:25.675Z,53.31
2018-07-28T06:19:54.760Z,53.50
2018-07-28T06:22:23.963Z,53.42
2018-07-28T06:24:53.039Z,53.75
2018-07-28T06:27:22.148Z,53.83
2018-07-28T06:29:51.202Z,52.91
2018-07-28T06:32:20.263Z,52.88
2018-07-28T06:34:49.367Z,52.64
2018-07-28T06:37:18.465Z,53.42
2018-07-28T06:39:47.574Z,53.25
2018-07-28T06:42:16.718Z,53.05
2018-07-28T06:44:45.790Z,53.64
2018-07-28T06:47:14.944Z,53.89
2018-07-28T06:49:43.997Z,52.92
2018-07-28T06:52:13.129Z,52.91
2018-07-28T06:54:42.161Z,53.28
2018-07-28T06:57:11.321Z,53.03
2018-07-28T06:59:40.412Z,53.18
2018-07-28T07:02:09.520Z,52.50
2018-07-28T07:04:38.609Z,53.19
2018-07-28T07:07:07.764Z,52.09
2018-07-28T07:09:36.872Z,51.98
2018-07-28T07:12:06.159Z,52.85
2018-07-28T07:14:35.299Z,52.87
2018-07-28T07:17:04.394Z,52.93
2018-07-28T07:19:33.465Z,52.44
2018-07-28T07:22:02.650Z,51.18
2018-07-28T07:24:31.885Z,52.06
2018-07-28T07:27:01.079Z,50.33
2018-07-28T07:29:30.289Z,50.69
2018-07-28T07:31:59.673Z,50.65
2018-07-28T07:34:28.894Z,50.80
2018-07-28T07:36:58.401Z,50.86
2018-07-28T07:39:27.556Z,50.04
2018-07-28T07:41:56.789Z,49.77
2018-07-28T07:44:26.007Z,50.09
2018-07-28T07:46:55.053Z,50.99
2018-07-28T07:49:24.245Z,51.34
2018-07-28T07:51:53.392Z,50.82
2018-07-28T07:54:22.482Z,50.03
2018-07-28T07:56:51.559Z,50.31
2018-07-28T07:59:20.652Z,50.42
2018-07-28T08:01:49.753Z,50.31
2018-07-28T08:04:18.861Z,50.71
2018-07-28T08:06:48.458Z,49.71
2018-07-28T08:09:17.521Z,49.83
2018-07-28T08:11:46.635Z,50.53
2018-07-28T08:14:15.727Z,50.65
2018-07-28T08:16:44.876Z,49.83
2018-07-28T08:19:13.954Z,49.83
2018-07-28T08:21:43.517Z,50.28
2018-07-28T08:24:13.056Z,49.81
2018-07-28T08:26:42.275Z,49.57
2018-07-28T08:29:11.570Z,49.46
2018-07-28T08:31:40.660Z,48.18
2018-07-28T08:34:10.270Z,47.90
2018-07-28T08:36:39.376Z,47.88
2018-07-28T08:39:12.456Z,47.10
2018-07-28T08:41:42.385Z,46.29
2018-07-28T08:44:11.603Z,45.00
2018-07-28T08:46:41.236Z,44.97
2018-07-28T08:49:10.383Z,45.02
2018-07-28T08:51:39.445Z,43.86
2018-07-28T08:54:08.581Z,42.19
2018-07-28T08:56:37.718Z,42.97
2018-07-28T08:59:06.962Z,42.12
2018-07-28T09:01:36.149Z,42.63
2018-07-28T09:04:05.239Z,42.43
2018-07-28T09:06:35.023Z,41.50
2018-07-28T09:09:06.229Z,40.81
2018-07-28T09:11:35.353Z,40.75
2018-07-28T09:14:04.569Z,40.28
2018-07-28T09:16:33.740Z,41.51
2018-07-28T09:19:02.751Z,40.20
2018-07-28T09:21:31.826Z,39.85
2018-07-28T09:24:01.075Z,39.58
2018-07-28T09:26:30.295Z,40.06
2018-07-28T09:28:59.595Z,40.86
2018-07-28T09:31:28.621Z,40.70
2018-07-28T09:33:58.154Z,40.55
2018-07-28T09:36:27.374Z,41.12
2018-07-28T09:38:56.498Z,42.48
2018-07-28T09:41:25.623Z,41.35
2018-07-28T09:43:54.818Z,41.57
2018-07-28T09:46:24.501Z,42.08
2018-07-28T09:48:53.512Z,43.00
2018-07-28T09:51:22.546Z,42.27
2018-07-28T09:53:51.651Z,41.89
2018-07-28T09:56:20.785Z,42.59
2018-07-28T09:58:49.882Z,41.97
2018-07-28T10:01:22.387Z,42.54
2018-07-28T10:03:52.132Z,40.94
2018-07-28T10:06:21.390Z,40.70
2018-07-28T10:08:50.534Z,40.75
2018-07-28T10:11:19.682Z,41.34
2018-07-28T10:13:48.802Z,40.50
2018-07-28T10:16:18.331Z,40.84
2018-07-28T10:18:47.453Z,40.41
2018-07-28T10:21:16.603Z,41.86
2018-07-28T10:23:46.001Z,41.33
2018-07-28T10:26:15.218Z,41.31
2018-07-28T10:28:44.408Z,41.98
2018-07-28T10:31:13.475Z,41.71
2018-07-28T10:33:42.685Z,42.21
2018-07-28T10:36:11.902Z,41.22
2018-07-28T10:38:41.088Z,40.19
2018-07-28T10:41:10.286Z,40.52
2018-07-28T10:43:39.363Z,41.62
2018-07-28T10:46:08.607Z,41.45
2018-07-28T10:48:37.890Z,40.60
2018-07-28T10:51:07.745Z,41.87
2018-07-28T10:53:36.887Z,40.58
2018-07-28T10:56:06.039Z,40.87
2018-07-28T10:58:35.198Z,40.76
2018-07-28T11:01:05.282Z,40.72
2018-07-28T11:03:34.514Z,42.21
2018-07-28T11:06:03.915Z,42.90
2018-07-28T11:08:32.997Z,43.24
2018-07-28T11:11:02.335Z,43.45
2018-07-28T11:13:31.547Z,42.17
2018-07-28T11:16:00.642Z,42.42
2018-07-28T11:18:29.829Z,40.53
2018-07-28T11:20:58.977Z,40.21
2018-07-28T11:23:39.748Z,40.13
2018-07-28T11:26:08.874Z,40.05
2018-07-28T11:28:37.993Z,38.87
2018-07-28T11:31:17.085Z,39.37
2018-07-28T11:33:57.503Z,38.15
2018-07-28T11:36:37.797Z,38.62
2018-07-28T11:39:18.879Z,40.47
2018-07-28T11:41:59.568Z,39.86
2018-07-28T11:44:39.786Z,40.92
2018-07-28T11:47:08.917Z,39.13
2018-07-28T11:49:38.137Z,39.92
2018-07-28T11:52:07.275Z,39.82
2018-07-28T11:54:36.409Z,39.93
2018-07-28T11:57:05.510Z,39.69
2018-07-28T11:59:34.590Z,39.39
2018-07-28T12:02:03.807Z,39.97
2018-07-28T12:04:32.934Z,38.98
2018-07-28T12:07:02.119Z,40.07
2018-07-28T12:09:31.221Z,40.99
2018-07-28T12:12:00.391Z,42.02
2018-07-28T12:14:29.517Z,42.48
2018-07-28T12:16:58.678Z,43.48
2018-07-28T12:19:27.813Z,43.74
2018-07-28T12:21:57.184Z,43.86
2018-07-28T12:24:26.378Z,43.24
2018-07-28T12:26:55.466Z,42.70
2018-07-28T12:29:24.595Z,41.68
2018-07-28T12:31:53.707Z,40.82
2018-07-28T12:34:22.766Z,39.27
2018-07-28T12:36:51.903Z,39.29
2018-07-28T12:39:21.051Z,38.06
2018-07-28T12:41:50.156Z,39.01
2018-07-28T12:44:19.202Z,39.32
2018-07-28T12:46:48.332Z,39.86
2018-07-28T12:49:17.465Z,39.35
2018-07-28T12:51:46.541Z,38.84
2018-07-28T12:54:15.644Z,38.68
2018-07-28T12:56:45.098Z,38.20
2018-07-28T12:59:14.179Z,37.28
2018-07-28T13:01:43.387Z,38.24
2018-07-28T13:04:12.654Z,37.95
2018-07-28T13:06:41.835Z,36.70
2018-07-28T13:09:12.216Z,38.00
2018-07-28T13:11:41.767Z,38.37
2018-07-28T13:14:11.423Z,37.05
2018-07-28T13:16:40.706Z,37.08
2018-07-28T13:19:10.241Z,37.82
2018-07-28T13:21:39.453Z,38.04
2018-07-28T13:24:08.650Z,38.21
2018-07-28T13:26:37.808Z,36.40
2018-07-28T13:29:07.763Z,35.96
2018-07-28T13:31:36.942Z,36.16
2018-07-28T13:34:06.046Z,37.59
2018-07-28T13:36:35.182Z,37.79
2018-07-28T13:39:05.663Z,38.03
2018-07-28T13:41:34.846Z,38.44
2018-07-28T13:44:05.315Z,38.34
2018-07-28T13:46:34.357Z,38.05
2018-07-28T13:49:03.504Z,35.56
2018-07-28T13:51:32.611Z,33.97
2018-07-28T13:54:01.701Z,33.94
2018-07-28T13:56:30.766Z,32.16
2018-07-28T13:58:59.892Z,32.28
2018-07-28T14:01:29.578Z,34.23
2018-07-28T14:03:58.720Z,34.79
2018-07-28T14:06:28.347Z,34.39
2018-07-28T14:08:57.587Z,33.24
2018-07-28T14:11:26.748Z,31.47
2018-07-28T14:13:55.951Z,31.06
2018-07-28T14:16:25.200Z,32.30
2018-07-28T14:18:54.394Z,32.94
2018-07-28T14:21:23.583Z,34.52
2018-07-28T14:23:52.606Z,34.81
2018-07-28T14:26:21.765Z,34.17
2018-07-28T14:28:51.006Z,34.15
2018-07-28T14:31:20.214Z,34.73
2018-07-28T14:33:49.732Z,35.49
2018-07-28T14:36:18.833Z,36.27
2018-07-28T14:38:47.925Z,36.25
2018-07-28T14:41:18.964Z,36.00
2018-07-28T14:43:48.129Z,35.92
2018-07-28T14:46:17.350Z,35.75
2018-07-28T14:48:46.473Z,35.68
2018-07-28T14:51:15.670Z,36.77
2018-07-28T14:53:44.766Z,38.04
2018-07-28T14:56:14.466Z,37.69
2018-07-28T14:58:43.676Z,38.28
2018-07-28T15:01:12.765Z,37.45
2018-07-28T15:03:41.898Z,36.95
2018-07-28T15:06:11.174Z,37.38
2018-07-28T15:08:40.365Z,36.22
2018-07-28T15:11:09.468Z,36.34
2018-07-28T15:13:38.777Z,34.69
2018-07-28T15:16:08.483Z,35.40
2018-07-28T15:18:37.575Z,34.52
2018-07-28T15:21:06.812Z,33.61
2018-07-28T15:23:35.890Z,33.55
2018-07-28T15:26:05.026Z,34.14
2018-07-28T15:28:34.156Z,33.07
2018-07-28T15:31:03.239Z,32.82
2018-07-28T15:33:32.405Z,31.96
2018-07-28T15:36:01.450Z,31.73
2018-07-28T15:38:30.580Z,31.36
2018-07-28T15:40:59.679Z,30.33
2018-07-28T15:43:28.770Z,30.58
2018-07-28T15:45:58.228Z,29.82
2018-07-28T15:48:27.327Z,29.48
2018-07-28T15:50:56.454Z,30.17
2018-07-28T15:53:25.651Z,30.14
2018-07-28T15:55:54.779Z,29.35
2018-07-28T15:58:23.811Z,30.13
2018-07-28T16:00:52.940Z,30.17
2018-07-28T16:03:22.036Z,29.82
2018-07-28T16:05:51.094Z,29.97
2018-07-28T16:08:20.181Z,30.89
2018-07-28T16:10:49.458Z,32.30
2018-07-28T16:13:18.542Z,32.55
2018-07-28T16:15:47.721Z,31.71
2018-07-28T16:18:16.801Z,31.48
2018-07-28T16:20:46.031Z,31.39
2018-07-28T16:23:15.089Z,32.34
2018-07-28T16:25:44.169Z,32.89
2018-07-28T16:28:13.302Z,33.74
2018-07-28T16:30:42.426Z,34.08
2018-07-28T16:33:11.571Z,34.33
2018-07-28T16:35:40.639Z,34.46
2018-07-28T16:38:09.719Z,33.80
2018-07-28T16:40:38.819Z,34.43
2018-07-28T16:43:07.941Z,35.00
2018-07-28T16:45:37.070Z,34.79
2018-07-28T16:48:06.181Z,33.89
2018-07-28T16:50:35.599Z,31.12
2018-07-28T16:53:04.731Z,31.52
2018-07-28T16:55:37.221Z,31.16
2018-07-28T16:58:06.325Z,31.04
2018-07-28T17:00:35.473Z,31.30
2018-07-28T17:03:04.595Z,30.98
2018-07-28T17:05:33.907Z,31.48
2018-07-28T17:08:03.161Z,31.86
2018-07-28T17:10:32.253Z,32.77
2018-07-28T17:13:01.358Z,31.54
2018-07-28T17:15:30.453Z,32.36
2018-07-28T17:17:59.611Z,32.41
2018-07-28T17:20:28.679Z,33.27
2018-07-28T17:22:57.827Z,32.59
2018-07-28T17:25:26.910Z,33.06
2018-07-28T17:27:56.015Z,32.44
2018-07-28T17:30:25.101Z,32.99
2018-07-28T17:32:54.290Z,34.08
2018-07-28T17:35:23.665Z,33.51
2018-07-28T17:37:52.847Z,34.12
2018-07-28T17:40:21.907Z,33.83
2018-07-28T17:42:51.061Z,33.95
2018-07-28T17:45:20.099Z,35.20
2018-07-28T17:47:49.225Z,34.67
2018-07-28T17:50:18.305Z,35.48
2018-07-28T17:52:47.433Z,34.64
2018-07-28T17:55:16.549Z,35.23
2018-07-28T17:57:45.652Z,35.05
2018-07-28T18:00:14.801Z,35.87
2018-07-28T18:02:43.945Z,36.24
2018-07-28T18:05:13.331Z,36.43
2018-07-28T18:07:42.569Z,36.85
2018-07-28T18:10:11.564Z,35.59
2018-07-28T18:12:40.725Z,36.00
2018-07-28T18:15:09.819Z,35.75
2018-07-28T18:17:38.939Z,36.06
2018-07-28T18:20:08.033Z,36.49
2018-07-28T18:22:37.127Z,36.68
2018-07-28T18:25:06.224Z,36.63
2018-07-28T18:27:35.326Z,36.40
2018-07-28T18:30:04.734Z,36.18
2018-07-28T18:32:33.919Z,36.69
2018-07-28T18:35:03.042Z,36.54
2018-07-28T18:37:32.143Z,36.66
2018-07-28T18:40:01.303Z,37.20
2018-07-28T18:42:30.622Z,36.05
2018-07-28T18:44:59.814Z,37.50
2018-07-28T18:47:28.933Z,37.11
2018-07-28T18:49:58.983Z,37.54
2018-07-28T18:52:28.049Z,37.38
2018-07-28T18:54:57.316Z,36.66
2018-07-28T18:57:26.382Z,37.24
2018-07-28T18:59:55.562Z,36.12
2018-07-28T19:02:24.727Z,37.16
2018-07-28T19:04:53.850Z,37.48
2018-07-28T19:07:23.047Z,36.14
2018-07-28T19:09:52.978Z,36.13
2018-07-28T19:12:27.798Z,37.47
2018-07-28T19:14:56.893Z,37.83
2018-07-28T19:17:31.476Z,37.14
2018-07-28T19:20:00.737Z,37.66
2018-07-28T19:22:35.616Z,37.63
2018-07-28T19:25:04.754Z,37.29
2018-07-28T19:27:34.253Z,38.53
2018-07-28T19:30:03.424Z,38.72
2018-07-28T19:32:32.680Z,38.80
2018-07-28T19:35:01.832Z,38.19
2018-07-28T19:37:30.970Z,38.40
2018-07-28T19:40:00.196Z,38.25
2018-07-28T19:42:34.721Z,39.53
2018-07-28T19:45:03.808Z,39.52
2018-07-28T19:47:32.899Z,39.36
2018-07-28T19:50:01.947Z,38.92
2018-07-28T19:52:31.061Z,38.90
2018-07-28T19:55:00.159Z,39.20
2018-07-28T19:57:29.302Z,39.50
2018-07-28T19:59:59.160Z,38.65
2018-07-28T20:02:28.412Z,38.99
2018-07-28T20:04:57.556Z,39.11
2018-07-28T20:07:26.710Z,38.81
2018-07-28T20:09:55.810Z,39.17
2018-07-28T20:12:24.905Z,39.89
2018-07-28T20:14:55.936Z,39.69
2018-07-28T20:17:25.094Z,38.97
2018-07-28T20:19:54.178Z,39.55
2018-07-28T20:22:23.225Z,40.54
2018-07-28T20:24:52.377Z,39.99
2018-07-28T20:27:21.452Z,40.57
2018-07-28T20:29:50.530Z,40.41
2018-07-28T20:32:19.760Z,40.72
2018-07-28T20:34:48.884Z,40.81
2018-07-28T20:37:17.986Z,41.05
2018-07-28T20:39:47.153Z,41.29
2018-07-28T20:42:16.225Z,40.13
2018-07-28T20:44:45.582Z,40.37
2018-07-28T20:47:15.039Z,40.48
2018-07-28T20:49:44.190Z,40.65
2018-07-28T20:52:14.107Z,41.27
2018-07-28T20:54:43.203Z,42.29
2018-07-28T20:57:12.478Z,42.23
2018-07-28T20:59:41.540Z,42.21
2018-07-28T21:02:10.593Z,42.35
2018-07-28T21:04:39.739Z,42.52
2018-07-28T21:07:08.802Z,42.67
2018-07-28T21:09:37.952Z,42.82
2018-07-28T21:12:07.056Z,43.62
2018-07-28T21:14:36.194Z,43.14
2018-07-28T21:17:05.469Z,43.17
2018-07-28T21:19:34.553Z,43.17
2018-07-28T21:22:03.622Z,44.48
2018-07-28T21:24:32.716Z,44.19
2018-07-28T21:27:01.805Z,43.72
2018-07-28T21:29:30.918Z,44.91
2018-07-28T21:32:00.051Z,44.85
2018-07-28T21:34:29.174Z,44.69
2018-07-28T21:36:58.314Z,44.92
2018-07-28T21:39:27.883Z,45.05
2018-07-28T21:41:56.939Z,46.14
2018-07-28T21:44:26.029Z,45.51
2018-07-28T21:46:55.085Z,45.99
2018-07-28T21:49:24.218Z,46.75
2018-07-28T21:51:53.261Z,47.26
2018-07-28T21:54:22.815Z,46.82
2018-07-28T21:56:51.886Z,47.02
2018-07-28T21:59:20.930Z,46.76
2018-07-28T22:01:50.359Z,47.26
2018-07-28T22:04:25.462Z,48.81
2018-07-28T22:06:54.601Z,49.89
2018-07-28T22:09:23.782Z,49.15
2018-07-28T22:11:52.943Z,49.09
2018-07-28T22:14:22.145Z,48.79
2018-07-28T22:16:51.216Z,49.07
2018-07-28T22:19:20.339Z,49.73
2018-07-28T22:21:49.465Z,48.95
2018-07-28T22:24:18.678Z,50.47
2018-07-28T22:26:47.762Z,50.03
2018-07-28T22:29:16.835Z,49.09
2018-07-28T22:31:45.913Z,49.95
2018-07-28T22:34:15.027Z,49.84
2018-07-28T22:36:44.058Z,49.14
2018-07-28T22:39:13.204Z,49.22
2018-07-28T22:41:42.285Z,50.52
2018-07-28T22:44:11.406Z,50.48
2018-07-28T22:46:40.491Z,50.63
2018-07-28T22:49:09.602Z,50.25
2018-07-28T22:51:38.683Z,50.60
2018-07-28T22:54:07.834Z,50.09
2018-07-28T22:56:36.953Z,51.13
2018-07-28T22:59:06.234Z,51.13
2018-07-28T23:01:35.307Z,51.32
2018-07-28T23:04:04.429Z,52.30
2018-07-28T23:06:33.603Z,51.61
2018-07-28T23:09:02.795Z,51.72
2018-07-28T23:11:31.994Z,51.81
2018-07-28T23:14:01.095Z,51.93
2018-07-28T23:16:30.244Z,53.08
2018-07-28T23:18:59.380Z,52.25
2018-07-28T23:21:28.472Z,52.90
2018-07-28T23:23:57.702Z,52.90
2018-07-28T23:26:26.777Z,51.95
2018-07-28T23:28:55.959Z,52.16
2018-07-28T23:31:25.073Z,52.21
2018-07-28T23:33:54.226Z,52.51
2018-07-28T23:36:23.349Z,52.89
2018-07-28T23:38:52.551Z,52.54
2018-07-28T23:41:21.711Z,53.31
2018-07-28T23:43:50.746Z,53.44
2018-07-28T23:46:19.873Z,53.39
2018-07-28T23:48:48.950Z,53.28
2018-07-28T23:51:18.030Z,52.99
2018-07-28T23:53:47.089Z,54.53
2018-07-28T23:56:16.226Z,54.29
2018-07-28T23:58:45.312Z,55.17
